sensor_id;sensor_type;location;lat;lon;timestamp;P1;durP1;ratioP1;P2;durP2;ratioP2
6661;SDS011;3367;48.714;8.994;2023-11-21T00:01:00;2.47;;;0.70;;
6661;SDS011;3367;48.714;8.994;2023-11-21T00:03:33;1.30;;;1.13;;
6661;SDS011;3367;48.714;8.994;2023-11-21T00:06:03;1.83;;;0.70;;
6661;SDS011;3367;48.714;8.994;2023-11-21T00:08:34;0.70;;;0.50;;
6661;SDS011;3367;48.714;8.994;2023-11-21T00:11:01;1.10;;;1.00;;
6661;SDS011;3367;48.714;8.994;2023-11-21T00:13:30;1.93;;;1.00;;
6661;SDS011;3367;48.714;8.994;2023-11-21T00:15:57;2.20;;;1.63;;
6661;SDS011;3367;48.714;8.994;2023-11-21T00:18:24;0.73;;;0.57;;
6661;SDS011;3367;48.714;8.994;2023-11-21T00:20:54;0.70;;;0.60;;
6661;SDS011;3367;48.714;8.994;2023-11-21T00:23:24;0.70;;;0.50;;
6661;SDS011;3367;48.714;8.994;2023-11-21T00:25:54;7.70;;;1.13;;
6661;SDS011;3367;48.714;8.994;2023-11-21T00:28:23;1.73;;;0.57;;
6661;SDS011;3367;48.714;8.994;2023-11-21T00:30:53;2.30;;;0.77;;
6661;SDS011;3367;48.714;8.994;2023-11-21T00:33:20;2.30;;;0.90;;
6661;SDS011;3367;48.714;8.994;2023-11-21T00:35:47;6.30;;;1.10;;
6661;SDS011;3367;48.714;8.994;2023-11-21T00:38:21;1.93;;;0.70;;
6661;SDS011;3367;48.714;8.994;2023-11-21T00:40:48;2.00;;;1.07;;
6661;SDS011;3367;48.714;8.994;2023-11-21T00:43:18;6.63;;;1.17;;
6661;SDS011;3367;48.714;8.994;2023-11-21T00:45:44;2.30;;;0.70;;
6661;SDS011;3367;48.714;8.994;2023-11-21T00:48:14;0.60;;;0.40;;
6661;SDS011;3367;48.714;8.994;2023-11-21T00:50:40;0.80;;;0.70;;
6661;SDS011;3367;48.714;8.994;2023-11-21T00:53:08;1.00;;;0.73;;
6661;SDS011;3367;48.714;8.994;2023-11-21T00:55:36;1.07;;;0.60;;
6661;SDS011;3367;48.714;8.994;2023-11-21T00:58:05;0.67;;;0.40;;
6661;SDS011;3367;48.714;8.994;2023-11-21T01:00:32;0.97;;;0.80;;
6661;SDS011;3367;48.714;8.994;2023-11-21T01:03:04;0.80;;;0.70;;
6661;SDS011;3367;48.714;8.994;2023-11-21T01:05:32;1.47;;;0.80;;
6661;SDS011;3367;48.714;8.994;2023-11-21T01:07:59;5.60;;;0.83;;
6661;SDS011;3367;48.714;8.994;2023-11-21T01:10:27;3.50;;;1.80;;
6661;SDS011;3367;48.714;8.994;2023-11-21T01:12:57;1.17;;;0.60;;
6661;SDS011;3367;48.714;8.994;2023-11-21T01:15:23;6.20;;;0.80;;
6661;SDS011;3367;48.714;8.994;2023-11-21T01:17:54;1.00;;;0.83;;
6661;SDS011;3367;48.714;8.994;2023-11-21T01:20:23;4.00;;;1.23;;
6661;SDS011;3367;48.714;8.994;2023-11-21T01:22:59;0.70;;;0.60;;
6661;SDS011;3367;48.714;8.994;2023-11-21T01:25:25;2.50;;;1.30;;
6661;SDS011;3367;48.714;8.994;2023-11-21T01:27:54;3.50;;;1.20;;
6661;SDS011;3367;48.714;8.994;2023-11-21T01:30:24;4.40;;;0.90;;
6661;SDS011;3367;48.714;8.994;2023-11-21T01:32:51;2.10;;;1.03;;
6661;SDS011;3367;48.714;8.994;2023-11-21T01:35:18;6.83;;;1.00;;
6661;SDS011;3367;48.714;8.994;2023-11-21T01:37:48;0.87;;;0.70;;
6661;SDS011;3367;48.714;8.994;2023-11-21T01:40:16;1.57;;;1.00;;
6661;SDS011;3367;48.714;8.994;2023-11-21T01:42:48;0.80;;;0.50;;
6661;SDS011;3367;48.714;8.994;2023-11-21T01:45:18;0.80;;;0.53;;
6661;SDS011;3367;48.714;8.994;2023-11-21T01:47:45;2.50;;;1.00;;
6661;SDS011;3367;48.714;8.994;2023-11-21T01:50:13;0.90;;;0.63;;
6661;SDS011;3367;48.714;8.994;2023-11-21T01:52:45;1.17;;;0.60;;
6661;SDS011;3367;48.714;8.994;2023-11-21T01:55:14;0.80;;;0.70;;
6661;SDS011;3367;48.714;8.994;2023-11-21T01:57:48;1.03;;;0.63;;
6661;SDS011;3367;48.714;8.994;2023-11-21T02:00:21;0.90;;;0.80;;
6661;SDS011;3367;48.714;8.994;2023-11-21T02:02:54;0.90;;;0.70;;
6661;SDS011;3367;48.714;8.994;2023-11-21T02:05:21;0.60;;;0.50;;
6661;SDS011;3367;48.714;8.994;2023-11-21T02:07:52;0.80;;;0.50;;
6661;SDS011;3367;48.714;8.994;2023-11-21T02:10:21;0.97;;;0.57;;
6661;SDS011;3367;48.714;8.994;2023-11-21T02:12:50;1.00;;;0.87;;
6661;SDS011;3367;48.714;8.994;2023-11-21T02:15:22;3.80;;;0.67;;
6661;SDS011;3367;48.714;8.994;2023-11-21T02:17:56;1.37;;;0.80;;
6661;SDS011;3367;48.714;8.994;2023-11-21T02:20:26;0.60;;;0.60;;
6661;SDS011;3367;48.714;8.994;2023-11-21T02:22:56;1.17;;;0.80;;
6661;SDS011;3367;48.714;8.994;2023-11-21T02:25:33;0.80;;;0.60;;
6661;SDS011;3367;48.714;8.994;2023-11-21T02:28:02;0.60;;;0.50;;
6661;SDS011;3367;48.714;8.994;2023-11-21T02:30:29;2.27;;;0.43;;
6661;SDS011;3367;48.714;8.994;2023-11-21T02:33:02;0.50;;;0.40;;
6661;SDS011;3367;48.714;8.994;2023-11-21T02:35:31;0.77;;;0.53;;
6661;SDS011;3367;48.714;8.994;2023-11-21T02:37:59;0.80;;;0.40;;
6661;SDS011;3367;48.714;8.994;2023-11-21T02:40:26;0.50;;;0.40;;
6661;SDS011;3367;48.714;8.994;2023-11-21T02:42:53;0.90;;;0.90;;
6661;SDS011;3367;48.714;8.994;2023-11-21T02:45:27;0.50;;;0.30;;
6661;SDS011;3367;48.714;8.994;2023-11-21T02:47:56;0.83;;;0.50;;
6661;SDS011;3367;48.714;8.994;2023-11-21T02:50:29;0.90;;;0.50;;
6661;SDS011;3367;48.714;8.994;2023-11-21T02:52:56;0.87;;;0.43;;
6661;SDS011;3367;48.714;8.994;2023-11-21T02:55:26;1.27;;;0.57;;
6661;SDS011;3367;48.714;8.994;2023-11-21T02:57:53;0.60;;;0.40;;
6661;SDS011;3367;48.714;8.994;2023-11-21T03:00:24;1.70;;;0.70;;
6661;SDS011;3367;48.714;8.994;2023-11-21T03:02:55;1.87;;;0.50;;
6661;SDS011;3367;48.714;8.994;2023-11-21T03:05:24;0.50;;;0.40;;
6661;SDS011;3367;48.714;8.994;2023-11-21T03:07:51;0.60;;;0.30;;
6661;SDS011;3367;48.714;8.994;2023-11-21T03:10:19;1.00;;;0.50;;
6661;SDS011;3367;48.714;8.994;2023-11-21T03:12:47;0.50;;;0.37;;
6661;SDS011;3367;48.714;8.994;2023-11-21T03:15:14;0.60;;;0.50;;
6661;SDS011;3367;48.714;8.994;2023-11-21T03:17:41;1.13;;;0.60;;
6661;SDS011;3367;48.714;8.994;2023-11-21T03:20:08;3.37;;;0.40;;
6661;SDS011;3367;48.714;8.994;2023-11-21T03:22:38;0.60;;;0.40;;
6661;SDS011;3367;48.714;8.994;2023-11-21T03:25:06;1.17;;;0.40;;
6661;SDS011;3367;48.714;8.994;2023-11-21T03:27:35;1.13;;;0.40;;
6661;SDS011;3367;48.714;8.994;2023-11-21T03:30:04;1.37;;;0.30;;
6661;SDS011;3367;48.714;8.994;2023-11-21T03:32:34;0.80;;;0.53;;
6661;SDS011;3367;48.714;8.994;2023-11-21T03:35:01;3.13;;;0.60;;
6661;SDS011;3367;48.714;8.994;2023-11-21T03:37:31;0.60;;;0.50;;
6661;SDS011;3367;48.714;8.994;2023-11-21T03:40:01;0.50;;;0.40;;
6661;SDS011;3367;48.714;8.994;2023-11-21T03:42:32;0.67;;;0.50;;
6661;SDS011;3367;48.714;8.994;2023-11-21T03:45:06;0.50;;;0.40;;
6661;SDS011;3367;48.714;8.994;2023-11-21T03:47:34;0.60;;;0.60;;
6661;SDS011;3367;48.714;8.994;2023-11-21T03:50:00;0.50;;;0.30;;
6661;SDS011;3367;48.714;8.994;2023-11-21T03:52:28;0.60;;;0.40;;
6661;SDS011;3367;48.714;8.994;2023-11-21T03:55:01;0.50;;;0.30;;
6661;SDS011;3367;48.714;8.994;2023-11-21T03:57:27;0.60;;;0.50;;
6661;SDS011;3367;48.714;8.994;2023-11-21T03:59:54;0.50;;;0.50;;
6661;SDS011;3367;48.714;8.994;2023-11-21T04:02:22;0.90;;;0.57;;
6661;SDS011;3367;48.714;8.994;2023-11-21T04:04:53;0.50;;;0.30;;
6661;SDS011;3367;48.714;8.994;2023-11-21T04:07:20;0.50;;;0.30;;
6661;SDS011;3367;48.714;8.994;2023-11-21T04:09:49;0.90;;;0.70;;
6661;SDS011;3367;48.714;8.994;2023-11-21T04:12:15;0.50;;;0.30;;
6661;SDS011;3367;48.714;8.994;2023-11-21T04:14:44;0.80;;;0.70;;
6661;SDS011;3367;48.714;8.994;2023-11-21T04:17:17;0.50;;;0.40;;
6661;SDS011;3367;48.714;8.994;2023-11-21T04:19:46;1.10;;;0.40;;
6661;SDS011;3367;48.714;8.994;2023-11-21T04:22:15;0.93;;;0.30;;
6661;SDS011;3367;48.714;8.994;2023-11-21T04:24:48;0.50;;;0.50;;
6661;SDS011;3367;48.714;8.994;2023-11-21T04:27:15;2.00;;;0.57;;
6661;SDS011;3367;48.714;8.994;2023-11-21T04:29:57;1.33;;;0.50;;
6661;SDS011;3367;48.714;8.994;2023-11-21T04:32:28;0.87;;;0.50;;
6661;SDS011;3367;48.714;8.994;2023-11-21T04:34:56;1.00;;;0.50;;
6661;SDS011;3367;48.714;8.994;2023-11-21T04:37:22;0.60;;;0.37;;
6661;SDS011;3367;48.714;8.994;2023-11-21T04:39:52;2.27;;;0.50;;
6661;SDS011;3367;48.714;8.994;2023-11-21T04:42:19;0.50;;;0.30;;
6661;SDS011;3367;48.714;8.994;2023-11-21T04:44:46;0.40;;;0.30;;
6661;SDS011;3367;48.714;8.994;2023-11-21T04:47:12;0.50;;;0.30;;
6661;SDS011;3367;48.714;8.994;2023-11-21T04:49:48;0.70;;;0.50;;
6661;SDS011;3367;48.714;8.994;2023-11-21T04:55:05;1.20;;;0.67;;
6661;SDS011;3367;48.714;8.994;2023-11-21T04:57:35;0.60;;;0.33;;
6661;SDS011;3367;48.714;8.994;2023-11-21T05:00:01;0.60;;;0.60;;
6661;SDS011;3367;48.714;8.994;2023-11-21T05:02:30;0.80;;;0.37;;
6661;SDS011;3367;48.714;8.994;2023-11-21T05:04:59;0.77;;;0.43;;
6661;SDS011;3367;48.714;8.994;2023-11-21T05:07:25;1.17;;;0.57;;
6661;SDS011;3367;48.714;8.994;2023-11-21T05:10:00;0.70;;;0.50;;
6661;SDS011;3367;48.714;8.994;2023-11-21T05:12:30;0.53;;;0.50;;
6661;SDS011;3367;48.714;8.994;2023-11-21T05:14:58;3.47;;;2.73;;
6661;SDS011;3367;48.714;8.994;2023-11-21T05:17:25;0.80;;;0.80;;
6661;SDS011;3367;48.714;8.994;2023-11-21T05:19:52;4.50;;;1.63;;
6661;SDS011;3367;48.714;8.994;2023-11-21T05:22:19;2.17;;;1.97;;
6661;SDS011;3367;48.714;8.994;2023-11-21T05:24:46;2.50;;;2.30;;
6661;SDS011;3367;48.714;8.994;2023-11-21T05:27:23;9.03;;;4.37;;
6661;SDS011;3367;48.714;8.994;2023-11-21T05:29:52;12.70;;;7.63;;
6661;SDS011;3367;48.714;8.994;2023-11-21T05:32:19;3.10;;;2.63;;
6661;SDS011;3367;48.714;8.994;2023-11-21T05:34:45;3.23;;;3.03;;
6661;SDS011;3367;48.714;8.994;2023-11-21T05:37:12;1.10;;;0.90;;
6661;SDS011;3367;48.714;8.994;2023-11-21T05:39:39;3.43;;;0.63;;
6661;SDS011;3367;48.714;8.994;2023-11-21T05:42:06;1.40;;;0.90;;
6661;SDS011;3367;48.714;8.994;2023-11-21T05:44:37;0.70;;;0.70;;
6661;SDS011;3367;48.714;8.994;2023-11-21T05:47:14;1.47;;;1.37;;
6661;SDS011;3367;48.714;8.994;2023-11-21T05:49:44;1.33;;;1.23;;
6661;SDS011;3367;48.714;8.994;2023-11-21T05:52:15;2.40;;;1.10;;
6661;SDS011;3367;48.714;8.994;2023-11-21T05:54:41;0.80;;;0.77;;
6661;SDS011;3367;48.714;8.994;2023-11-21T05:57:11;1.33;;;0.70;;
6661;SDS011;3367;48.714;8.994;2023-11-21T05:59:39;0.60;;;0.60;;
6661;SDS011;3367;48.714;8.994;2023-11-21T06:02:06;1.37;;;0.90;;
6661;SDS011;3367;48.714;8.994;2023-11-21T06:04:39;1.50;;;0.70;;
6661;SDS011;3367;48.714;8.994;2023-11-21T06:07:06;0.80;;;0.70;;
6661;SDS011;3367;48.714;8.994;2023-11-21T06:09:35;0.80;;;0.80;;
6661;SDS011;3367;48.714;8.994;2023-11-21T06:12:03;0.67;;;0.63;;
6661;SDS011;3367;48.714;8.994;2023-11-21T06:14:36;0.80;;;0.60;;
6661;SDS011;3367;48.714;8.994;2023-11-21T06:17:12;0.63;;;0.63;;
6661;SDS011;3367;48.714;8.994;2023-11-21T06:19:39;2.13;;;1.57;;
6661;SDS011;3367;48.714;8.994;2023-11-21T06:22:06;1.60;;;1.00;;
6661;SDS011;3367;48.714;8.994;2023-11-21T06:24:36;0.83;;;0.77;;
6661;SDS011;3367;48.714;8.994;2023-11-21T06:27:05;0.80;;;0.73;;
6661;SDS011;3367;48.714;8.994;2023-11-21T06:29:35;2.40;;;1.13;;
6661;SDS011;3367;48.714;8.994;2023-11-21T06:32:06;0.80;;;0.80;;
6661;SDS011;3367;48.714;8.994;2023-11-21T06:34:36;1.30;;;0.73;;
6661;SDS011;3367;48.714;8.994;2023-11-21T06:37:03;1.50;;;1.30;;
6661;SDS011;3367;48.714;8.994;2023-11-21T06:39:31;1.20;;;0.90;;
6661;SDS011;3367;48.714;8.994;2023-11-21T06:42:03;0.73;;;0.73;;
6661;SDS011;3367;48.714;8.994;2023-11-21T06:44:30;1.23;;;0.70;;
6661;SDS011;3367;48.714;8.994;2023-11-21T06:46:58;0.87;;;0.87;;
6661;SDS011;3367;48.714;8.994;2023-11-21T06:49:34;3.07;;;1.13;;
6661;SDS011;3367;48.714;8.994;2023-11-21T06:52:01;1.97;;;1.00;;
6661;SDS011;3367;48.714;8.994;2023-11-21T06:54:28;1.27;;;1.17;;
6661;SDS011;3367;48.714;8.994;2023-11-21T06:57:07;3.93;;;1.00;;
6661;SDS011;3367;48.714;8.994;2023-11-21T06:59:36;1.10;;;1.00;;
6661;SDS011;3367;48.714;8.994;2023-11-21T07:02:03;2.17;;;1.20;;
6661;SDS011;3367;48.714;8.994;2023-11-21T07:04:35;1.77;;;1.67;;
6661;SDS011;3367;48.714;8.994;2023-11-21T07:07:05;1.10;;;1.00;;
6661;SDS011;3367;48.714;8.994;2023-11-21T07:09:35;1.30;;;0.90;;
6661;SDS011;3367;48.714;8.994;2023-11-21T07:12:05;1.20;;;0.90;;
6661;SDS011;3367;48.714;8.994;2023-11-21T07:14:33;2.00;;;1.13;;
6661;SDS011;3367;48.714;8.994;2023-11-21T07:17:05;1.00;;;0.90;;
6661;SDS011;3367;48.714;8.994;2023-11-21T07:19:32;5.13;;;1.50;;
6661;SDS011;3367;48.714;8.994;2023-11-21T07:22:03;1.10;;;0.90;;
6661;SDS011;3367;48.714;8.994;2023-11-21T07:24:30;2.07;;;1.20;;
6661;SDS011;3367;48.714;8.994;2023-11-21T07:26:57;1.17;;;0.63;;
6661;SDS011;3367;48.714;8.994;2023-11-21T07:29:24;3.23;;;1.17;;
6661;SDS011;3367;48.714;8.994;2023-11-21T07:31:51;2.63;;;1.40;;
6661;SDS011;3367;48.714;8.994;2023-11-21T07:34:18;1.80;;;1.13;;
6661;SDS011;3367;48.714;8.994;2023-11-21T07:36:47;2.03;;;1.27;;
6661;SDS011;3367;48.714;8.994;2023-11-21T07:39:14;1.60;;;0.90;;
6661;SDS011;3367;48.714;8.994;2023-11-21T07:41:41;1.77;;;0.90;;
6661;SDS011;3367;48.714;8.994;2023-11-21T07:44:13;1.30;;;1.03;;
6661;SDS011;3367;48.714;8.994;2023-11-21T07:46:41;2.40;;;1.57;;
6661;SDS011;3367;48.714;8.994;2023-11-21T07:49:08;2.00;;;1.10;;
6661;SDS011;3367;48.714;8.994;2023-11-21T07:51:35;0.80;;;0.70;;
6661;SDS011;3367;48.714;8.994;2023-11-21T07:54:03;1.17;;;1.07;;
6661;SDS011;3367;48.714;8.994;2023-11-21T07:56:30;1.77;;;1.00;;
6661;SDS011;3367;48.714;8.994;2023-11-21T07:58:57;1.60;;;1.50;;
6661;SDS011;3367;48.714;8.994;2023-11-21T08:01:24;0.80;;;0.70;;
6661;SDS011;3367;48.714;8.994;2023-11-21T08:03:52;1.10;;;0.90;;
6661;SDS011;3367;48.714;8.994;2023-11-21T08:06:22;1.30;;;1.20;;
6661;SDS011;3367;48.714;8.994;2023-11-21T08:08:48;2.30;;;0.70;;
6661;SDS011;3367;48.714;8.994;2023-11-21T08:11:17;3.03;;;1.10;;
6661;SDS011;3367;48.714;8.994;2023-11-21T08:13:44;0.90;;;0.73;;
6661;SDS011;3367;48.714;8.994;2023-11-21T08:16:11;0.70;;;0.70;;
6661;SDS011;3367;48.714;8.994;2023-11-21T08:18:38;0.90;;;0.80;;
6661;SDS011;3367;48.714;8.994;2023-11-21T08:21:06;0.67;;;0.67;;
6661;SDS011;3367;48.714;8.994;2023-11-21T08:23:33;0.73;;;0.70;;
6661;SDS011;3367;48.714;8.994;2023-11-21T08:26:00;1.43;;;0.57;;
6661;SDS011;3367;48.714;8.994;2023-11-21T08:28:29;0.70;;;0.60;;
6661;SDS011;3367;48.714;8.994;2023-11-21T08:30:56;1.37;;;0.97;;
6661;SDS011;3367;48.714;8.994;2023-11-21T08:33:24;1.63;;;0.67;;
6661;SDS011;3367;48.714;8.994;2023-11-21T08:35:50;0.80;;;0.70;;
6661;SDS011;3367;48.714;8.994;2023-11-21T08:38:17;0.90;;;0.80;;
6661;SDS011;3367;48.714;8.994;2023-11-21T08:40:44;0.80;;;0.60;;
6661;SDS011;3367;48.714;8.994;2023-11-21T08:43:11;0.77;;;0.70;;
6661;SDS011;3367;48.714;8.994;2023-11-21T08:45:41;0.90;;;0.70;;
6661;SDS011;3367;48.714;8.994;2023-11-21T08:48:07;2.53;;;1.10;;
6661;SDS011;3367;48.714;8.994;2023-11-21T08:50:36;0.77;;;0.63;;
6661;SDS011;3367;48.714;8.994;2023-11-21T08:53:03;1.70;;;0.90;;
6661;SDS011;3367;48.714;8.994;2023-11-21T08:55:30;4.30;;;2.50;;
6661;SDS011;3367;48.714;8.994;2023-11-21T08:58:02;3.47;;;2.30;;
6661;SDS011;3367;48.714;8.994;2023-11-21T09:00:30;2.60;;;1.27;;
6661;SDS011;3367;48.714;8.994;2023-11-21T09:02:58;2.33;;;1.70;;
6661;SDS011;3367;48.714;8.994;2023-11-21T09:05:26;1.50;;;0.97;;
6661;SDS011;3367;48.714;8.994;2023-11-21T09:07:53;1.20;;;1.07;;
6661;SDS011;3367;48.714;8.994;2023-11-21T09:10:20;1.10;;;0.80;;
6661;SDS011;3367;48.714;8.994;2023-11-21T09:12:47;0.80;;;0.80;;
6661;SDS011;3367;48.714;8.994;2023-11-21T09:15:13;2.30;;;1.53;;
6661;SDS011;3367;48.714;8.994;2023-11-21T09:17:40;2.20;;;0.87;;
6661;SDS011;3367;48.714;8.994;2023-11-21T09:20:09;1.10;;;0.90;;
6661;SDS011;3367;48.714;8.994;2023-11-21T09:22:36;3.30;;;1.20;;
6661;SDS011;3367;48.714;8.994;2023-11-21T09:25:03;0.93;;;0.93;;
6661;SDS011;3367;48.714;8.994;2023-11-21T09:27:32;1.80;;;1.10;;
6661;SDS011;3367;48.714;8.994;2023-11-21T09:29:59;0.90;;;0.80;;
6661;SDS011;3367;48.714;8.994;2023-11-21T09:32:25;2.70;;;0.97;;
6661;SDS011;3367;48.714;8.994;2023-11-21T09:34:52;1.57;;;0.87;;
6661;SDS011;3367;48.714;8.994;2023-11-21T09:37:21;0.90;;;0.70;;
6661;SDS011;3367;48.714;8.994;2023-11-21T09:39:48;0.70;;;0.70;;
6661;SDS011;3367;48.714;8.994;2023-11-21T09:42:15;0.73;;;0.70;;
6661;SDS011;3367;48.714;8.994;2023-11-21T09:44:51;1.43;;;0.90;;
6661;SDS011;3367;48.714;8.994;2023-11-21T09:47:26;1.27;;;1.00;;
6661;SDS011;3367;48.714;8.994;2023-11-21T09:49:54;1.60;;;1.13;;
6661;SDS011;3367;48.714;8.994;2023-11-21T09:52:24;1.33;;;1.23;;
6661;SDS011;3367;48.714;8.994;2023-11-21T09:54:52;1.30;;;1.20;;
6661;SDS011;3367;48.714;8.994;2023-11-21T09:57:22;1.10;;;1.00;;
6661;SDS011;3367;48.714;8.994;2023-11-21T09:59:50;1.10;;;1.00;;
6661;SDS011;3367;48.714;8.994;2023-11-21T10:02:20;1.40;;;1.23;;
6661;SDS011;3367;48.714;8.994;2023-11-21T10:04:51;1.37;;;1.27;;
6661;SDS011;3367;48.714;8.994;2023-11-21T10:07:18;1.63;;;1.23;;
6661;SDS011;3367;48.714;8.994;2023-11-21T10:09:47;1.37;;;0.90;;
6661;SDS011;3367;48.714;8.994;2023-11-21T10:12:14;1.57;;;1.30;;
6661;SDS011;3367;48.714;8.994;2023-11-21T10:14:42;1.37;;;1.20;;
6661;SDS011;3367;48.714;8.994;2023-11-21T10:17:10;1.10;;;1.00;;
6661;SDS011;3367;48.714;8.994;2023-11-21T10:19:38;1.23;;;1.13;;
6661;SDS011;3367;48.714;8.994;2023-11-21T10:22:05;1.67;;;1.10;;
6661;SDS011;3367;48.714;8.994;2023-11-21T10:24:33;0.90;;;0.60;;
6661;SDS011;3367;48.714;8.994;2023-11-21T10:27:03;1.40;;;1.20;;
6661;SDS011;3367;48.714;8.994;2023-11-21T10:29:30;1.27;;;1.17;;
6661;SDS011;3367;48.714;8.994;2023-11-21T10:32:00;1.20;;;1.10;;
6661;SDS011;3367;48.714;8.994;2023-11-21T10:34:28;0.90;;;0.80;;
6661;SDS011;3367;48.714;8.994;2023-11-21T10:36:55;1.20;;;1.10;;
6661;SDS011;3367;48.714;8.994;2023-11-21T10:39:23;1.10;;;1.00;;
6661;SDS011;3367;48.714;8.994;2023-11-21T10:41:54;0.93;;;0.90;;
6661;SDS011;3367;48.714;8.994;2023-11-21T10:44:22;1.10;;;1.00;;
6661;SDS011;3367;48.714;8.994;2023-11-21T10:46:50;1.00;;;1.00;;
6661;SDS011;3367;48.714;8.994;2023-11-21T10:49:21;1.33;;;1.07;;
6661;SDS011;3367;48.714;8.994;2023-11-21T10:51:49;3.50;;;1.57;;
6661;SDS011;3367;48.714;8.994;2023-11-21T10:54:18;2.77;;;1.17;;
6661;SDS011;3367;48.714;8.994;2023-11-21T10:56:45;0.77;;;0.77;;
6661;SDS011;3367;48.714;8.994;2023-11-21T10:59:16;3.43;;;1.20;;
6661;SDS011;3367;48.714;8.994;2023-11-21T11:01:45;6.20;;;2.97;;
6661;SDS011;3367;48.714;8.994;2023-11-21T11:04:12;3.10;;;1.67;;
6661;SDS011;3367;48.714;8.994;2023-11-21T11:06:42;6.40;;;3.00;;
6661;SDS011;3367;48.714;8.994;2023-11-21T11:09:10;6.47;;;3.03;;
6661;SDS011;3367;48.714;8.994;2023-11-21T11:11:39;4.70;;;2.97;;
6661;SDS011;3367;48.714;8.994;2023-11-21T11:14:09;2.07;;;1.87;;
6661;SDS011;3367;48.714;8.994;2023-11-21T11:16:38;3.93;;;1.30;;
6661;SDS011;3367;48.714;8.994;2023-11-21T11:19:07;1.43;;;1.23;;
6661;SDS011;3367;48.714;8.994;2023-11-21T11:21:37;2.00;;;1.27;;
6661;SDS011;3367;48.714;8.994;2023-11-21T11:24:17;1.80;;;1.70;;
6661;SDS011;3367;48.714;8.994;2023-11-21T11:27:00;1.40;;;1.30;;
6661;SDS011;3367;48.714;8.994;2023-11-21T11:29:35;2.40;;;1.40;;
6661;SDS011;3367;48.714;8.994;2023-11-21T11:32:11;1.00;;;0.80;;
6661;SDS011;3367;48.714;8.994;2023-11-21T11:34:49;0.80;;;0.60;;
6661;SDS011;3367;48.714;8.994;2023-11-21T11:37:22;1.17;;;0.90;;
6661;SDS011;3367;48.714;8.994;2023-11-21T11:39:49;0.90;;;0.70;;
6661;SDS011;3367;48.714;8.994;2023-11-21T11:42:19;3.83;;;0.50;;
6661;SDS011;3367;48.714;8.994;2023-11-21T11:44:49;1.00;;;0.90;;
6661;SDS011;3367;48.714;8.994;2023-11-21T11:47:19;1.10;;;1.00;;
6661;SDS011;3367;48.714;8.994;2023-11-21T11:49:56;0.87;;;0.87;;
6661;SDS011;3367;48.714;8.994;2023-11-21T11:52:33;1.00;;;0.90;;
6661;SDS011;3367;48.714;8.994;2023-11-21T11:55:01;0.97;;;0.87;;
6661;SDS011;3367;48.714;8.994;2023-11-21T11:57:30;0.80;;;0.80;;
6661;SDS011;3367;48.714;8.994;2023-11-21T12:00:13;0.70;;;0.70;;
6661;SDS011;3367;48.714;8.994;2023-11-21T12:02:46;1.20;;;0.90;;
6661;SDS011;3367;48.714;8.994;2023-11-21T12:05:15;1.13;;;1.03;;
6661;SDS011;3367;48.714;8.994;2023-11-21T12:07:46;1.30;;;0.80;;
6661;SDS011;3367;48.714;8.994;2023-11-21T12:10:15;1.17;;;1.07;;
6661;SDS011;3367;48.714;8.994;2023-11-21T12:12:44;1.87;;;1.73;;
6661;SDS011;3367;48.714;8.994;2023-11-21T12:15:12;1.33;;;1.23;;
6661;SDS011;3367;48.714;8.994;2023-11-21T12:17:39;1.60;;;1.30;;
6661;SDS011;3367;48.714;8.994;2023-11-21T12:20:08;1.50;;;1.30;;
6661;SDS011;3367;48.714;8.994;2023-11-21T12:22:42;1.37;;;1.27;;
6661;SDS011;3367;48.714;8.994;2023-11-21T12:25:12;1.93;;;1.80;;
6661;SDS011;3367;48.714;8.994;2023-11-21T12:27:41;1.40;;;1.30;;
6661;SDS011;3367;48.714;8.994;2023-11-21T12:30:09;1.57;;;1.47;;
6661;SDS011;3367;48.714;8.994;2023-11-21T12:32:38;1.90;;;1.80;;
6661;SDS011;3367;48.714;8.994;2023-11-21T12:35:06;1.50;;;1.40;;
6661;SDS011;3367;48.714;8.994;2023-11-21T12:37:34;1.57;;;1.47;;
6661;SDS011;3367;48.714;8.994;2023-11-21T12:40:04;2.33;;;1.63;;
6661;SDS011;3367;48.714;8.994;2023-11-21T12:42:32;4.80;;;2.80;;
6661;SDS011;3367;48.714;8.994;2023-11-21T12:45:10;1.60;;;1.40;;
6661;SDS011;3367;48.714;8.994;2023-11-21T12:47:45;2.60;;;1.50;;
6661;SDS011;3367;48.714;8.994;2023-11-21T12:50:13;2.30;;;2.10;;
6661;SDS011;3367;48.714;8.994;2023-11-21T12:52:41;4.67;;;4.20;;
6661;SDS011;3367;48.714;8.994;2023-11-21T12:55:14;2.23;;;2.13;;
6661;SDS011;3367;48.714;8.994;2023-11-21T12:57:42;6.90;;;4.90;;
6661;SDS011;3367;48.714;8.994;2023-11-21T13:00:10;2.47;;;2.27;;
6661;SDS011;3367;48.714;8.994;2023-11-21T13:02:50;2.07;;;1.90;;
6661;SDS011;3367;48.714;8.994;2023-11-21T13:05:23;2.93;;;1.43;;
6661;SDS011;3367;48.714;8.994;2023-11-21T13:07:53;1.57;;;1.47;;
6661;SDS011;3367;48.714;8.994;2023-11-21T13:10:24;1.80;;;1.70;;
6661;SDS011;3367;48.714;8.994;2023-11-21T13:12:54;2.23;;;1.83;;
6661;SDS011;3367;48.714;8.994;2023-11-21T13:15:23;1.53;;;1.43;;
6661;SDS011;3367;48.714;8.994;2023-11-21T13:17:50;1.60;;;1.40;;
6661;SDS011;3367;48.714;8.994;2023-11-21T13:20:18;1.23;;;1.13;;
6661;SDS011;3367;48.714;8.994;2023-11-21T13:22:46;1.30;;;1.00;;
6661;SDS011;3367;48.714;8.994;2023-11-21T13:25:15;1.50;;;1.30;;
6661;SDS011;3367;48.714;8.994;2023-11-21T13:27:44;2.10;;;1.90;;
6661;SDS011;3367;48.714;8.994;2023-11-21T13:30:12;1.70;;;1.60;;
6661;SDS011;3367;48.714;8.994;2023-11-21T13:32:44;1.97;;;1.80;;
6661;SDS011;3367;48.714;8.994;2023-11-21T13:35:11;2.63;;;1.43;;
6661;SDS011;3367;48.714;8.994;2023-11-21T13:37:47;2.10;;;1.50;;
6661;SDS011;3367;48.714;8.994;2023-11-21T13:40:18;1.77;;;1.67;;
6661;SDS011;3367;48.714;8.994;2023-11-21T13:42:49;2.23;;;1.20;;
6661;SDS011;3367;48.714;8.994;2023-11-21T13:45:18;0.90;;;0.90;;
6661;SDS011;3367;48.714;8.994;2023-11-21T13:47:47;0.90;;;0.77;;
6661;SDS011;3367;48.714;8.994;2023-11-21T13:50:16;0.80;;;0.50;;
6661;SDS011;3367;48.714;8.994;2023-11-21T13:52:47;0.70;;;0.57;;
6661;SDS011;3367;48.714;8.994;2023-11-21T13:55:16;0.50;;;0.30;;
6661;SDS011;3367;48.714;8.994;2023-11-21T13:57:42;0.53;;;0.40;;
6661;SDS011;3367;48.714;8.994;2023-11-21T14:00:14;0.80;;;0.50;;
6661;SDS011;3367;48.714;8.994;2023-11-21T14:03:01;3.30;;;1.00;;
6661;SDS011;3367;48.714;8.994;2023-11-21T14:05:33;1.77;;;1.07;;
6661;SDS011;3367;48.714;8.994;2023-11-21T14:08:00;0.80;;;0.77;;
6661;SDS011;3367;48.714;8.994;2023-11-21T14:10:29;0.90;;;0.70;;
6661;SDS011;3367;48.714;8.994;2023-11-21T14:13:05;0.73;;;0.67;;
6661;SDS011;3367;48.714;8.994;2023-11-21T14:15:33;0.80;;;0.40;;
6661;SDS011;3367;48.714;8.994;2023-11-21T14:18:03;0.70;;;0.70;;
6661;SDS011;3367;48.714;8.994;2023-11-21T14:20:33;0.80;;;0.80;;
6661;SDS011;3367;48.714;8.994;2023-11-21T14:23:01;0.60;;;0.60;;
6661;SDS011;3367;48.714;8.994;2023-11-21T14:25:28;1.10;;;1.00;;
6661;SDS011;3367;48.714;8.994;2023-11-21T14:27:54;0.93;;;0.67;;
6661;SDS011;3367;48.714;8.994;2023-11-21T14:30:22;0.90;;;0.90;;
6661;SDS011;3367;48.714;8.994;2023-11-21T14:32:51;1.53;;;1.17;;
6661;SDS011;3367;48.714;8.994;2023-11-21T14:35:18;2.70;;;1.10;;
6661;SDS011;3367;48.714;8.994;2023-11-21T14:37:45;1.00;;;0.90;;
6661;SDS011;3367;48.714;8.994;2023-11-21T14:40:12;2.17;;;1.00;;
6661;SDS011;3367;48.714;8.994;2023-11-21T14:42:41;0.80;;;0.73;;
6661;SDS011;3367;48.714;8.994;2023-11-21T14:45:08;0.67;;;0.67;;
6661;SDS011;3367;48.714;8.994;2023-11-21T14:47:37;1.07;;;1.00;;
6661;SDS011;3367;48.714;8.994;2023-11-21T14:50:10;1.07;;;0.97;;
6661;SDS011;3367;48.714;8.994;2023-11-21T14:53:04;1.10;;;1.00;;
6661;SDS011;3367;48.714;8.994;2023-11-21T14:55:31;1.20;;;1.10;;
6661;SDS011;3367;48.714;8.994;2023-11-21T14:58:04;1.20;;;1.10;;
6661;SDS011;3367;48.714;8.994;2023-11-21T15:00:31;1.00;;;0.90;;
6661;SDS011;3367;48.714;8.994;2023-11-21T15:03:09;1.77;;;1.40;;
6661;SDS011;3367;48.714;8.994;2023-11-21T15:05:51;1.10;;;1.00;;
6661;SDS011;3367;48.714;8.994;2023-11-21T15:08:20;1.10;;;0.93;;
6661;SDS011;3367;48.714;8.994;2023-11-21T15:10:51;1.20;;;1.10;;
6661;SDS011;3367;48.714;8.994;2023-11-21T15:13:18;1.23;;;0.90;;
6661;SDS011;3367;48.714;8.994;2023-11-21T15:15:46;1.90;;;1.50;;
6661;SDS011;3367;48.714;8.994;2023-11-21T15:18:12;1.63;;;1.20;;
6661;SDS011;3367;48.714;8.994;2023-11-21T15:20:39;0.70;;;0.60;;
6661;SDS011;3367;48.714;8.994;2023-11-21T15:23:06;1.07;;;0.97;;
6661;SDS011;3367;48.714;8.994;2023-11-21T15:25:34;1.10;;;1.00;;
6661;SDS011;3367;48.714;8.994;2023-11-21T15:28:01;0.80;;;0.80;;
6661;SDS011;3367;48.714;8.994;2023-11-21T15:30:29;3.00;;;1.43;;